Time;durP1;ratioP1;P1;durP2;ratioP2;P2;SDS_P1;SDS_P2;PMS_P1;PMS_P2;Temp;Humidity;BMP_temperature;BMP_pressure;BME280_temperature;BME280_humidity;BME280_pressure;Samples;Min_cycle;Max_cycle;Signal;HPM_P1;HPM_P2
2022/10/04 00:02:32;;;;;;;4.20;1.13;;;;;;;;;;3305354;43;20588;-58
2022/10/04 00:05:06;;;;;;;4.47;1.30;;;;;;;;;;3311016;43;20171;-60
2022/10/04 00:07:39;;;;;;;6.20;1.00;;;;;;;;;;3301378;43;20566;-60
2022/10/04 00:10:26;;;;;;;6.40;1.20;;;;;;;;;;3299651;43;20154;-59
2022/10/04 00:12:58;;;;;;;7.10;1.30;;;;;;;;;;3300399;43;20159;-58
2022/10/04 00:15:36;;;;;;;9.40;1.50;;;;;;;;;;3304221;43;20106;-61
2022/10/04 00:18:10;;;;;;;6.88;1.10;;;;;;;;;;3305130;43;20111;-60
2022/10/04 00:20:49;;;;;;;5.90;1.30;;;;;;;;;;3313440;43;20604;-60
2022/10/04 00:23:25;;;;;;;5.63;1.40;;;;;;;;;;3309744;43;20186;-60
2022/10/04 00:25:58;;;;;;;7.70;1.40;;;;;;;;;;3303782;43;20107;-61
2022/10/04 00:28:36;;;;;;;6.22;1.23;;;;;;;;;;3297842;43;20099;-60
2022/10/04 00:31:19;;;;;;;4.90;1.30;;;;;;;;;;3312333;43;20091;-60
2022/10/04 00:34:07;;;;;;;4.87;1.10;;;;;;;;;;3302826;43;20514;-60
2022/10/04 00:36:47;;;;;;;4.13;1.13;;;;;;;;;;3311129;43;20099;-60
2022/10/04 00:39:33;;;;;;;6.07;1.23;;;;;;;;;;3291282;43;20166;-62
2022/10/04 00:42:14;;;;;;;5.65;1.50;;;;;;;;;;3312060;43;20095;-58
2022/10/04 00:45:27;;;;;;;7.65;1.40;;;;;;;;;;3310685;43;20095;-59
2022/10/04 00:48:10;;;;;;;6.00;1.10;;;;;;;;;;3301724;43;20581;-60
2022/10/04 00:50:43;;;;;;;5.80;1.45;;;;;;;;;;3299693;43;20087;-60
2022/10/04 00:53:44;;;;;;;5.43;1.20;;;;;;;;;;3291829;43;20095;-60
2022/10/04 00:56:35;;;;;;;5.55;1.30;;;;;;;;;;3304320;43;20087;-59
2022/10/04 00:59:20;;;;;;;5.85;1.10;;;;;;;;;;3301763;43;20097;-60
2022/10/04 01:02:04;;;;;;;5.57;1.23;;;;;;;;;;3300491;43;20142;-60
2022/10/04 01:04:58;;;;;;;8.80;1.20;;;;;;;;;;3301541;43;20171;-58
2022/10/04 01:07:46;;;;;;;5.43;1.15;;;;;;;;;;3298398;43;20114;-61
2022/10/04 01:10:29;;;;;;;4.03;1.10;;;;;;;;;;3301552;43;20166;-59
2022/10/04 01:13:08;;;;;;;6.53;1.30;;;;;;;;;;3310109;43;20114;-61
2022/10/04 01:16:09;;;;;;;5.50;1.20;;;;;;;;;;3302459;43;20121;-58
2022/10/04 01:18:41;;;;;;;5.03;1.30;;;;;;;;;;3304977;43;20106;-61
2022/10/04 01:21:18;;;;;;;4.95;1.10;;;;;;;;;;3312997;43;20615;-61
2022/10/04 01:24:14;;;;;;;5.28;1.35;;;;;;;;;;3313825;43;20118;-63
2022/10/04 01:26:45;;;;;;;3.90;1.20;;;;;;;;;;3303164;43;20592;-62
2022/10/04 01:29:22;;;;;;;5.70;1.60;;;;;;;;;;3311611;43;20155;-58
2022/10/04 01:31:55;;;;;;;6.50;1.10;;;;;;;;;;3300812;43;20199;-63
2022/10/04 01:34:28;;;;;;;4.57;1.10;;;;;;;;;;3300979;43;20559;-59
2022/10/04 01:37:00;;;;;;;6.72;1.20;;;;;;;;;;3305265;43;20109;-59
2022/10/04 01:39:31;;;;;;;5.18;1.15;;;;;;;;;;3302147;43;20105;-59
2022/10/04 01:42:04;;;;;;;5.87;1.03;;;;;;;;;;3312379;43;20141;-58
2022/10/04 01:44:41;;;;;;;5.20;1.48;;;;;;;;;;3303330;43;20186;-62
2022/10/04 01:47:38;;;;;;;4.25;1.20;;;;;;;;;;3312432;43;20613;-59
2022/10/04 01:50:34;;;;;;;4.75;1.10;;;;;;;;;;3311332;43;20561;-60
2022/10/04 01:53:28;;;;;;;6.07;1.20;;;;;;;;;;3312341;43;20154;-59
2022/10/04 01:56:11;;;;;;;5.03;1.27;;;;;;;;;;3304316;43;20095;-61
2022/10/04 01:58:47;;;;;;;5.07;1.10;;;;;;;;;;3301075;43;20538;-60
2022/10/04 02:01:39;;;;;;;4.78;1.17;;;;;;;;;;3305213;43;20178;-59
2022/10/04 02:04:22;;;;;;;4.50;1.00;;;;;;;;;;3297678;43;20162;-61
2022/10/04 02:06:55;;;;;;;6.20;1.38;;;;;;;;;;3302688;43;20104;-59
2022/10/04 02:09:28;;;;;;;5.17;1.07;;;;;;;;;;3302896;43;20114;-60
2022/10/04 02:12:00;;;;;;;4.43;1.08;;;;;;;;;;3307312;43;20098;-60
2022/10/04 02:14:32;;;;;;;7.43;1.30;;;;;;;;;;3304738;43;20094;-61
2022/10/04 02:17:06;;;;;;;7.43;1.15;;;;;;;;;;3308564;43;20109;-60
2022/10/04 02:19:40;;;;;;;4.78;1.20;;;;;;;;;;3307575;43;20133;-58
2022/10/04 02:22:11;;;;;;;6.37;1.20;;;;;;;;;;3296982;43;20094;-61
2022/10/04 02:24:44;;;;;;;4.93;0.95;;;;;;;;;;3306260;43;20506;-62
2022/10/04 02:27:15;;;;;;;5.18;1.05;;;;;;;;;;3303023;43;20102;-59
2022/10/04 02:29:46;;;;;;;3.80;1.00;;;;;;;;;;3304825;43;20094;-60
2022/10/04 02:33:18;;;;;;;5.32;1.25;;;;;;;;;;3314890;43;20170;-61
2022/10/04 02:35:18;;;;;;;4.10;1.00;;;;;;;;;;3296525;43;20098;-60
2022/10/04 02:37:58;;;;;;;5.10;1.58;;;;;;;;;;3312533;43;20098;-61
2022/10/04 02:40:31;;;;;;;4.97;1.20;;;;;;;;;;3303374;43;20106;-59
2022/10/04 02:43:03;;;;;;;5.03;1.23;;;;;;;;;;3305695;43;20142;-61
2022/10/04 02:45:45;;;;;;;7.65;1.42;;;;;;;;;;3300594;43;20161;-61
2022/10/04 02:48:31;;;;;;;4.00;1.00;;;;;;;;;;3312480;43;20569;-60
2022/10/04 02:51:36;;;;;;;4.53;1.13;;;;;;;;;;3302443;43;20106;-57
2022/10/04 02:54:30;;;;;;;6.57;1.20;;;;;;;;;;3308027;43;20114;-60
2022/10/04 02:57:01;;;;;;;4.78;1.17;;;;;;;;;;3304045;43;20083;-59
2022/10/04 02:59:33;;;;;;;4.30;1.20;;;;;;;;;;3310851;43;20086;-59
2022/10/04 03:02:19;;;;;;;7.53;1.20;;;;;;;;;;3306222;43;20086;-58
2022/10/04 03:04:51;;;;;;;5.40;1.42;;;;;;;;;;3306301;43;20091;-60
2022/10/04 03:07:22;;;;;;;5.22;1.30;;;;;;;;;;3311065;43;20106;-60
2022/10/04 03:09:53;;;;;;;7.05;1.40;;;;;;;;;;3300336;43;20565;-61
2022/10/04 03:12:25;;;;;;;4.65;1.20;;;;;;;;;;3307200;43;20101;-60
2022/10/04 03:14:56;;;;;;;5.70;1.40;;;;;;;;;;3307121;43;20142;-58
2022/10/04 03:17:28;;;;;;;7.05;1.25;;;;;;;;;;3309025;43;20503;-59
2022/10/04 03:20:00;;;;;;;4.50;1.30;;;;;;;;;;3304546;43;20094;-59
2022/10/04 03:22:31;;;;;;;6.20;1.30;;;;;;;;;;3304663;43;20616;-61
2022/10/04 03:25:02;;;;;;;4.10;1.25;;;;;;;;;;3303397;43;20584;-60
2022/10/04 03:27:33;;;;;;;5.87;1.20;;;;;;;;;;3300840;43;20087;-61
2022/10/04 03:30:05;;;;;;;4.90;1.10;;;;;;;;;;3303183;43;20621;-59
2022/10/04 03:32:38;;;;;;;4.35;1.10;;;;;;;;;;3309453;43;20178;-58
2022/10/04 03:35:20;;;;;;;5.93;1.00;;;;;;;;;;3297592;43;20091;-60
2022/10/04 03:37:51;;;;;;;5.13;1.10;;;;;;;;;;3296077;43;20090;-59
2022/10/04 03:40:27;;;;;;;4.63;1.10;;;;;;;;;;3293544;43;20102;-62
2022/10/04 03:42:59;;;;;;;4.80;1.15;;;;;;;;;;3301505;43;20098;-60
2022/10/04 03:45:30;;;;;;;5.25;1.50;;;;;;;;;;3305240;43;20214;-60
2022/10/04 03:48:06;;;;;;;4.70;1.20;;;;;;;;;;3305422;43;20555;-60
2022/10/04 03:50:41;;;;;;;6.78;1.30;;;;;;;;;;3299187;43;20105;-60
2022/10/04 03:53:35;;;;;;;4.33;1.10;;;;;;;;;;3296726;43;20090;-60
2022/10/04 03:56:16;;;;;;;5.45;1.15;;;;;;;;;;3303778;43;20222;-59
2022/10/04 03:58:48;;;;;;;6.13;1.23;;;;;;;;;;3305008;43;20149;-60
2022/10/04 04:01:29;;;;;;;4.57;1.30;;;;;;;;;;3304842;43;20125;-61
2022/10/04 04:04:10;;;;;;;5.10;1.30;;;;;;;;;;3295614;43;20091;-60
2022/10/04 04:06:55;;;;;;;5.23;1.17;;;;;;;;;;3313924;43;20223;-60
2022/10/04 04:09:35;;;;;;;4.20;1.10;;;;;;;;;;3312606;43;20090;-60
2022/10/04 04:12:33;;;;;;;7.07;1.20;;;;;;;;;;3313505;43;20146;-62
2022/10/04 04:15:06;;;;;;;5.13;1.20;;;;;;;;;;3303445;43;20099;-61
2022/10/04 04:17:40;;;;;;;3.88;1.05;;;;;;;;;;3302818;43;20098;-60
2022/10/04 04:20:27;;;;;;;4.60;1.57;;;;;;;;;;3312675;43;20100;-59
2022/10/04 04:23:03;;;;;;;5.95;1.13;;;;;;;;;;3301802;43;20098;-61
2022/10/04 04:25:34;;;;;;;4.38;1.30;;;;;;;;;;3298289;43;20145;-61
2022/10/04 04:28:13;;;;;;;4.93;1.38;;;;;;;;;;3292812;43;20105;-60
2022/10/04 04:30:46;;;;;;;6.85;1.70;;;;;;;;;;3303729;43;20106;-62
2022/10/04 04:33:29;;;;;;;5.83;1.20;;;;;;;;;;3312748;43;20098;-60
2022/10/04 04:36:05;;;;;;;4.47;1.20;;;;;;;;;;3302985;43;20641;-60
2022/10/04 04:39:32;;;;;;;5.70;1.20;;;;;;;;;;3308601;43;20178;-60
2022/10/04 04:41:30;;;;;;;3.80;1.10;;;;;;;;;;3303580;43;20109;-58
2022/10/04 04:44:01;;;;;;;4.90;1.10;;;;;;;;;;3304423;43;20596;-58
2022/10/04 04:46:32;;;;;;;5.23;1.10;;;;;;;;;;3302942;43;20110;-59
2022/10/04 04:49:04;;;;;;;5.78;1.63;;;;;;;;;;3305890;43;20165;-58
2022/10/04 04:51:35;;;;;;;5.38;1.15;;;;;;;;;;3312249;43;20090;-60
2022/10/04 04:54:06;;;;;;;5.97;1.40;;;;;;;;;;3302178;43;20610;-60
2022/10/04 04:56:37;;;;;;;7.65;1.40;;;;;;;;;;3304462;43;20102;-57
2022/10/04 04:59:10;;;;;;;4.27;1.10;;;;;;;;;;3303657;43;20512;-60
2022/10/04 05:01:44;;;;;;;4.40;1.10;;;;;;;;;;3305500;43;20106;-58
2022/10/04 05:22:35;;;;;;;4.78;1.50;;;;;;;;;;3040338;39;20451;-64
2022/10/04 05:25:24;;;;;;;5.57;1.55;;;;;;;;;;3393917;42;20160;-62
2022/10/04 05:27:55;;;;;;;4.60;1.50;;;;;;;;;;3379113;42;20139;-63
2022/10/04 05:30:38;;;;;;;5.35;1.30;;;;;;;;;;3394282;42;20106;-62
2022/10/04 05:33:22;;;;;;;6.77;1.30;;;;;;;;;;3399353;42;20090;-62
2022/10/04 05:36:08;;;;;;;5.13;1.30;;;;;;;;;;3390903;42;20108;-62
2022/10/04 05:38:45;;;;;;;5.90;1.70;;;;;;;;;;3394726;42;20180;-63
2022/10/04 05:41:40;;;;;;;8.00;1.33;;;;;;;;;;3385541;42;20158;-64
2022/10/04 05:44:18;;;;;;;4.75;1.40;;;;;;;;;;3400401;42;20158;-65
2022/10/04 05:46:50;;;;;;;5.30;1.60;;;;;;;;;;3393370;42;20094;-64
2022/10/04 05:49:21;;;;;;;7.45;1.60;;;;;;;;;;3393039;42;20099;-62
2022/10/04 05:52:01;;;;;;;6.13;1.58;;;;;;;;;;3397905;42;20543;-63
2022/10/04 05:54:34;;;;;;;7.25;1.38;;;;;;;;;;3388344;42;20105;-62
2022/10/04 05:57:39;;;;;;;5.15;1.40;;;;;;;;;;3394103;42;20607;-60
2022/10/04 06:00:19;;;;;;;6.00;1.30;;;;;;;;;;3396664;42;20607;-62
2022/10/04 06:02:56;;;;;;;6.38;1.90;;;;;;;;;;3395121;42;20090;-63
2022/10/04 06:05:40;;;;;;;8.70;1.50;;;;;;;;;;3393510;42;20134;-61
2022/10/04 06:08:35;;;;;;;5.53;1.73;;;;;;;;;;3398000;42;20105;-64
2022/10/04 06:11:12;;;;;;;5.25;1.63;;;;;;;;;;3394809;42;20095;-64
2022/10/04 06:14:01;;;;;;;4.60;1.50;;;;;;;;;;3389639;42;20091;-62
2022/10/04 06:16:35;;;;;;;5.63;1.40;;;;;;;;;;3388904;42;20079;-63
2022/10/04 06:19:22;;;;;;;6.50;1.67;;;;;;;;;;3388252;42;20188;-64
2022/10/04 06:22:02;;;;;;;7.18;1.70;;;;;;;;;;3386530;42;20090;-65
2022/10/04 06:24:37;;;;;;;5.50;1.60;;;;;;;;;;3376354;42;20138;-63
2022/10/04 06:27:15;;;;;;;5.23;1.80;;;;;;;;;;3376991;42;20169;-64
2022/10/04 06:29:55;;;;;;;10.32;1.60;;;;;;;;;;3380508;42;20830;-65
2022/10/04 06:32:48;;;;;;;7.22;1.75;;;;;;;;;;3388802;42;20830;-61
2022/10/04 06:35:52;;;;;;;6.00;1.50;;;;;;;;;;3380717;42;20524;-62
2022/10/04 06:38:54;;;;;;;5.50;1.63;;;;;;;;;;3388007;42;20095;-62
2022/10/04 06:41:47;;;;;;;6.63;1.70;;;;;;;;;;3381457;42;20149;-65
2022/10/04 06:44:36;;;;;;;6.70;1.60;;;;;;;;;;3381440;42;20169;-63
2022/10/04 06:47:29;;;;;;;5.57;1.63;;;;;;;;;;3369125;42;20109;-62
2022/10/04 06:50:37;;;;;;;5.50;1.60;;;;;;;;;;3376245;42;20091;-62
2022/10/04 06:53:32;;;;;;;7.00;1.65;;;;;;;;;;3381832;42;20091;-63
2022/10/04 06:56:04;;;;;;;4.87;1.40;;;;;;;;;;3385815;42;20099;-63
2022/10/04 06:58:47;;;;;;;5.45;1.40;;;;;;;;;;3383409;42;20083;-63
2022/10/04 07:01:30;;;;;;;5.30;1.60;;;;;;;;;;3384062;42;20083;-62
2022/10/04 07:04:07;;;;;;;6.95;1.60;;;;;;;;;;3370747;42;20091;-62
2022/10/04 07:06:53;;;;;;;5.22;1.60;;;;;;;;;;3382046;42;20095;-63
2022/10/04 07:09:24;;;;;;;8.03;1.50;;;;;;;;;;3388951;42;20108;-66
2022/10/04 07:12:07;;;;;;;4.93;1.48;;;;;;;;;;3373864;42;20078;-63
2022/10/04 07:14:44;;;;;;;7.80;1.80;;;;;;;;;;3366104;42;20184;-63
2022/10/04 07:17:22;;;;;;;6.82;1.58;;;;;;;;;;3376104;42;20107;-62
2022/10/04 07:19:53;;;;;;;6.13;1.60;;;;;;;;;;3377085;42;20151;-63
2022/10/04 07:22:40;;;;;;;6.07;2.00;;;;;;;;;;3375055;42;20658;-60
2022/10/04 07:25:19;;;;;;;4.70;1.30;;;;;;;;;;3377140;42;20105;-63
2022/10/04 07:31:02;;;;;;;5.50;1.40;;;;;;;;;;3389436;42;20083;-63
2022/10/04 07:33:44;;;;;;;4.53;1.50;;;;;;;;;;3389466;42;20115;-65
2022/10/04 07:36:25;;;;;;;5.27;1.40;;;;;;;;;;3374268;42;20079;-62
2022/10/04 07:39:00;;;;;;;7.65;1.40;;;;;;;;;;3368406;42;20098;-64
2022/10/04 07:41:34;;;;;;;4.65;1.50;;;;;;;;;;3384644;42;20097;-63
2022/10/04 07:44:14;;;;;;;4.97;1.63;;;;;;;;;;3377221;42;20090;-63
2022/10/04 07:46:51;;;;;;;4.80;1.60;;;;;;;;;;3384146;42;20097;-65
2022/10/04 07:49:23;;;;;;;5.97;1.60;;;;;;;;;;3383922;42;20142;-64
2022/10/04 07:52:33;;;;;;;5.68;1.48;;;;;;;;;;3373646;42;20110;-63
2022/10/04 07:55:42;;;;;;;6.40;1.50;;;;;;;;;;3390070;42;20102;-64
2022/10/04 07:58:19;;;;;;;6.00;1.70;;;;;;;;;;3389161;42;20221;-64
2022/10/04 08:01:08;;;;;;;5.57;1.70;;;;;;;;;;3382898;42;20113;-63
2022/10/04 08:03:39;;;;;;;9.33;1.73;;;;;;;;;;3381715;42;20150;-64
2022/10/04 08:06:35;;;;;;;5.07;1.67;;;;;;;;;;3382806;42;20174;-65
2022/10/04 08:09:06;;;;;;;6.93;1.50;;;;;;;;;;3372537;42;20090;-63
2022/10/04 08:11:56;;;;;;;5.50;1.70;;;;;;;;;;3380524;42;20548;-63
2022/10/04 08:14:54;;;;;;;7.70;1.70;;;;;;;;;;3377889;42;20095;-63
2022/10/04 08:17:29;;;;;;;6.20;1.60;;;;;;;;;;3379572;42;20101;-63
2022/10/04 08:20:19;;;;;;;5.70;1.70;;;;;;;;;;3381438;42;20521;-63
2022/10/04 08:22:59;;;;;;;5.25;1.60;;;;;;;;;;3379407;42;20142;-63
2022/10/04 08:25:49;;;;;;;4.45;1.40;;;;;;;;;;3382624;42;20087;-64
2022/10/04 08:31:26;;;;;;;6.03;1.57;;;;;;;;;;3382077;42;20090;-64
2022/10/04 08:34:32;;;;;;;7.15;1.40;;;;;;;;;;3375263;42;20094;-64
2022/10/04 08:37:25;;;;;;;5.55;1.70;;;;;;;;;;3376177;42;20086;-64
2022/10/04 08:40:11;;;;;;;7.75;1.38;;;;;;;;;;3381205;42;20582;-65
2022/10/04 08:43:04;;;;;;;9.70;1.80;;;;;;;;;;3381799;42;20180;-64
2022/10/04 08:46:02;;;;;;;5.37;1.50;;;;;;;;;;3379374;42;20559;-64
2022/10/04 08:48:52;;;;;;;6.03;1.45;;;;;;;;;;3382257;42;20090;-62
2022/10/04 08:52:01;;;;;;;7.97;1.88;;;;;;;;;;3381373;42;20117;-65
2022/10/04 08:54:59;;;;;;;5.93;1.48;;;;;;;;;;3388277;42;20534;-67
2022/10/04 08:57:48;;;;;;;5.88;1.50;;;;;;;;;;3380332;42;20079;-65
2022/10/04 09:00:47;;;;;;;6.03;1.40;;;;;;;;;;3386673;42;20087;-65
2022/10/04 09:03:33;;;;;;;4.90;1.33;;;;;;;;;;3382648;42;20102;-63
2022/10/04 09:06:25;;;;;;;5.75;1.42;;;;;;;;;;3375644;42;20260;-65
2022/10/04 09:09:05;;;;;;;6.70;1.90;;;;;;;;;;3380835;42;20091;-66
2022/10/04 09:11:45;;;;;;;6.35;1.35;;;;;;;;;;3378422;42;20166;-63
2022/10/04 09:14:50;;;;;;;9.70;1.57;;;;;;;;;;3378710;42;20171;-65
2022/10/04 09:17:47;;;;;;;6.30;1.60;;;;;;;;;;3369121;42;20109;-64
2022/10/04 09:20:32;;;;;;;5.05;1.55;;;;;;;;;;3372687;42;20113;-66
2022/10/04 09:23:29;;;;;;;6.20;1.70;;;;;;;;;;3390037;42;20164;-62
2022/10/04 09:26:11;;;;;;;4.82;1.40;;;;;;;;;;3385996;42;20620;-64
2022/10/04 09:29:06;;;;;;;6.90;1.50;;;;;;;;;;3378477;42;20106;-65
2022/10/04 09:31:40;;;;;;;7.97;1.60;;;;;;;;;;3374203;42;20499;-64
2022/10/04 09:34:27;;;;;;;6.85;1.65;;;;;;;;;;3377616;42;20091;-65
2022/10/04 09:37:17;;;;;;;8.40;2.10;;;;;;;;;;3375917;42;20153;-64
2022/10/04 09:40:27;;;;;;;6.32;1.50;;;;;;;;;;3383379;42;20095;-64
2022/10/04 09:43:22;;;;;;;5.90;1.60;;;;;;;;;;3370140;42;20162;-64
2022/10/04 09:46:00;;;;;;;8.60;1.75;;;;;;;;;;3373501;42;20097;-63
2022/10/04 09:48:35;;;;;;;5.95;1.45;;;;;;;;;;3375641;42;21063;-64
2022/10/04 09:51:07;;;;;;;10.73;1.83;;;;;;;;;;3374675;42;20500;-64
2022/10/04 09:53:59;;;;;;;8.02;1.80;;;;;;;;;;3383280;42;20540;-65
2022/10/04 09:56:42;;;;;;;5.93;1.70;;;;;;;;;;3381399;42;20091;-63
2022/10/04 09:59:36;;;;;;;10.25;1.92;;;;;;;;;;3379916;42;20581;-66
2022/10/04 10:02:39;;;;;;;8.10;1.77;;;;;;;;;;3383436;42;20173;-64
2022/10/04 10:05:18;;;;;;;6.63;1.92;;;;;;;;;;3383443;42;20090;-64
2022/10/04 10:08:04;;;;;;;6.90;1.67;;;;;;;;;;3380048;42;20083;-66
2022/10/04 10:14:01;;;;;;;6.97;1.80;;;;;;;;;;3377148;42;20166;-64
2022/10/04 10:16:59;;;;;;;14.57;1.88;;;;;;;;;;3383503;42;20082;-64
2022/10/04 10:19:43;;;;;;;10.23;2.00;;;;;;;;;;3381087;42;20553;-68
2022/10/04 10:22:42;;;;;;;8.90;1.85;;;;;;;;;;3383470;42;20616;-65
2022/10/04 10:25:38;;;;;;;11.10;1.97;;;;;;;;;;3389048;42;20098;-63
2022/10/04 10:28:25;;;;;;;13.13;2.10;;;;;;;;;;3382153;42;20093;-63
2022/10/04 10:31:37;;;;;;;9.02;2.30;;;;;;;;;;3388025;42;20547;-65
2022/10/04 10:34:12;;;;;;;16.42;3.00;;;;;;;;;;3373437;42;20101;-64
2022/10/04 10:37:01;;;;;;;13.88;2.00;;;;;;;;;;3384835;42;20133;-65
2022/10/04 10:40:03;;;;;;;21.33;2.67;;;;;;;;;;3377526;42;20097;-64
2022/10/04 10:42:55;;;;;;;14.73;2.20;;;;;;;;;;3372218;42;20099;-64
2022/10/04 10:45:58;;;;;;;12.40;2.17;;;;;;;;;;3374900;42;20113;-64
2022/10/04 10:48:52;;;;;;;12.32;2.40;;;;;;;;;;3379908;42;20201;-65
2022/10/04 10:51:57;;;;;;;16.45;2.75;;;;;;;;;;3367446;42;20099;-64
2022/10/04 10:54:51;;;;;;;19.23;2.67;;;;;;;;;;3379683;42;20134;-65
2022/10/04 10:57:28;;;;;;;21.55;3.38;;;;;;;;;;3375809;42;20605;-64
2022/10/04 11:00:41;;;;;;;21.75;2.72;;;;;;;;;;3380499;42;20107;-63
2022/10/04 11:03:31;;;;;;;23.08;3.42;;;;;;;;;;3364924;42;20103;-64
2022/10/04 11:06:40;;;;;;;20.35;3.42;;;;;;;;;;3386267;42;20095;-66
2022/10/04 11:09:14;;;;;;;19.97;2.83;;;;;;;;;;3379388;42;20165;-64
2022/10/04 11:12:10;;;;;;;13.55;2.30;;;;;;;;;;3383054;42;20169;-64
2022/10/04 11:15:20;;;;;;;18.80;2.35;;;;;;;;;;3380460;42;20101;-65
2022/10/04 11:17:55;;;;;;;17.25;3.22;;;;;;;;;;3379919;42;20110;-65
2022/10/04 11:20:45;;;;;;;14.25;2.65;;;;;;;;;;3382892;42;20175;-64
2022/10/04 11:23:38;;;;;;;22.53;2.80;;;;;;;;;;3381194;42;20146;-65
2022/10/04 11:26:34;;;;;;;16.02;2.97;;;;;;;;;;3383787;42;20090;-65
2022/10/04 11:29:09;;;;;;;14.68;2.38;;;;;;;;;;3379293;42;20087;-64
2022/10/04 11:31:59;;;;;;;12.90;2.10;;;;;;;;;;3379508;42;20094;-64
2022/10/04 11:34:58;;;;;;;12.20;2.13;;;;;;;;;;3382850;42;20549;-64
2022/10/04 11:37:40;;;;;;;13.87;2.27;;;;;;;;;;3383101;42;20090;-64
2022/10/04 11:40:30;;;;;;;9.32;1.88;;;;;;;;;;3384081;42;20083;-63
2022/10/04 11:43:40;;;;;;;7.70;1.75;;;;;;;;;;3384479;42;20560;-63
2022/10/04 11:46:15;;;;;;;10.45;1.80;;;;;;;;;;3370782;42;20485;-66
2022/10/04 11:48:52;;;;;;;10.30;1.95;;;;;;;;;;3384133;42;20157;-64
2022/10/04 11:51:39;;;;;;;6.53;2.23;;;;;;;;;;3384261;42;20550;-66
2022/10/04 11:54:32;;;;;;;10.77;1.67;;;;;;;;;;3382191;42;20209;-65
2022/10/04 11:57:11;;;;;;;11.52;1.60;;;;;;;;;;3381554;42;20087;-65
2022/10/04 12:00:19;;;;;;;8.25;1.65;;;;;;;;;;3384114;42;20095;-64
2022/10/04 12:03:08;;;;;;;6.93;1.55;;;;;;;;;;3367858;42;20130;-66
2022/10/04 12:06:03;;;;;;;13.17;1.70;;;;;;;;;;3364690;42;20094;-64
2022/10/04 12:08:40;;;;;;;9.18;1.60;;;;;;;;;;3379099;42;20105;-67
2022/10/04 12:11:14;;;;;;;6.53;1.70;;;;;;;;;;3378812;42;20079;-64
2022/10/04 12:13:57;;;;;;;7.13;1.75;;;;;;;;;;3379412;42;20122;-66
2022/10/04 12:16:55;;;;;;;7.00;1.73;;;;;;;;;;3378729;42;20157;-64
2022/10/04 12:20:09;;;;;;;4.73;1.40;;;;;;;;;;3374483;42;20164;-67
2022/10/04 12:22:49;;;;;;;5.38;1.40;;;;;;;;;;3373098;42;20107;-66
2022/10/04 12:25:31;;;;;;;14.05;1.85;;;;;;;;;;3376609;42;20149;-64
2022/10/04 12:28:13;;;;;;;10.73;2.55;;;;;;;;;;3371482;42;20612;-65
2022/10/04 12:30:59;;;;;;;10.07;1.98;;;;;;;;;;3373517;42;20098;-64
2022/10/04 12:33:48;;;;;;;5.83;1.70;;;;;;;;;;3379536;42;20086;-66
2022/10/04 12:36:29;;;;;;;6.43;1.55;;;;;;;;;;3378278;42;20567;-64
2022/10/04 12:39:09;;;;;;;5.93;1.20;;;;;;;;;;3377847;42;20087;-65
2022/10/04 12:41:46;;;;;;;4.65;1.40;;;;;;;;;;3379836;42;20083;-66
2022/10/04 12:44:33;;;;;;;5.53;1.52;;;;;;;;;;3377615;42;20091;-63
2022/10/04 12:47:23;;;;;;;4.80;1.50;;;;;;;;;;3373911;42;20606;-65
2022/10/04 12:50:14;;;;;;;5.53;1.77;;;;;;;;;;3377100;42;20658;-66
2022/10/04 12:53:17;;;;;;;5.40;1.20;;;;;;;;;;3382560;42;20795;-66
2022/10/04 12:56:08;;;;;;;8.07;1.58;;;;;;;;;;3380882;42;20087;-65
2022/10/04 12:58:54;;;;;;;9.23;1.42;;;;;;;;;;3374635;42;20151;-65
2022/10/04 13:01:37;;;;;;;7.17;1.40;;;;;;;;;;3382401;42;20091;-65
2022/10/04 13:04:19;;;;;;;6.85;1.40;;;;;;;;;;3375437;42;20564;-67
2022/10/04 13:06:50;;;;;;;4.90;1.40;;;;;;;;;;3383429;42;20113;-65
2022/10/04 13:09:33;;;;;;;5.53;1.48;;;;;;;;;;3384125;42;20678;-65
2022/10/04 13:12:37;;;;;;;4.47;1.33;;;;;;;;;;3387853;42;20090;-63
2022/10/04 13:15:38;;;;;;;6.67;1.43;;;;;;;;;;3370927;42;20087;-65
2022/10/04 13:18:26;;;;;;;6.97;1.70;;;;;;;;;;3375331;42;20547;-65
2022/10/04 13:21:13;;;;;;;7.10;1.50;;;;;;;;;;3378262;42;20098;-63
2022/10/04 13:23:51;;;;;;;5.25;1.30;;;;;;;;;;3375203;42;20095;-64
2022/10/04 13:26:53;;;;;;;4.63;1.42;;;;;;;;;;3379423;42;20516;-67
2022/10/04 13:29:43;;;;;;;5.03;1.60;;;;;;;;;;3377472;42;20140;-64
2022/10/04 13:32:21;;;;;;;6.05;1.38;;;;;;;;;;3376757;42;20106;-64
2022/10/04 13:35:17;;;;;;;7.63;1.70;;;;;;;;;;3375303;42;20117;-63
2022/10/04 13:37:54;;;;;;;4.57;1.30;;;;;;;;;;3373697;42;20095;-65
2022/10/04 13:40:31;;;;;;;5.28;1.65;;;;;;;;;;3382597;42;20164;-64
2022/10/04 13:43:27;;;;;;;5.30;1.40;;;;;;;;;;3376720;42;20102;-65
2022/10/04 13:46:38;;;;;;;6.57;1.60;;;;;;;;;;3382095;42;20147;-64
2022/10/04 13:49:33;;;;;;;6.05;1.80;;;;;;;;;;3348933;42;20088;-64
2022/10/04 13:58:52;;;;;;;7.10;1.60;;;;;;;;;;3380421;42;20555;-64
2022/10/04 14:01:52;;;;;;;7.53;1.70;;;;;;;;;;3377227;42;20095;-67
2022/10/04 14:04:48;;;;;;;7.65;1.67;;;;;;;;;;3370597;42;20780;-64
2022/10/04 14:07:32;;;;;;;6.80;1.65;;;;;;;;;;3383566;42;20565;-69
2022/10/04 14:10:12;;;;;;;6.15;1.90;;;;;;;;;;3384660;42;20139;-64
2022/10/04 14:12:52;;;;;;;6.43;1.60;;;;;;;;;;3384801;42;20200;-65
2022/10/04 14:15:35;;;;;;;5.32;1.73;;;;;;;;;;3383676;42;20091;-66
2022/10/04 14:18:15;;;;;;;8.85;1.65;;;;;;;;;;3384161;42;20556;-67
2022/10/04 14:21:11;;;;;;;8.50;1.90;;;;;;;;;;3376073;42;20087;-66
2022/10/04 14:24:09;;;;;;;6.03;1.92;;;;;;;;;;3388529;42;20087;-66
2022/10/04 14:27:03;;;;;;;5.97;1.63;;;;;;;;;;3381487;42;20510;-67
2022/10/04 14:30:05;;;;;;;7.65;1.70;;;;;;;;;;3378449;42;20528;-65
2022/10/04 14:32:53;;;;;;;5.10;1.60;;;;;;;;;;3383770;42;20147;-67
2022/10/04 14:35:54;;;;;;;4.88;1.50;;;;;;;;;;3381333;42;20083;-65
2022/10/04 14:38:30;;;;;;;6.22;1.88;;;;;;;;;;3359707;42;20106;-64
2022/10/04 14:41:07;;;;;;;6.83;1.80;;;;;;;;;;3381214;42;20103;-64
2022/10/04 14:44:12;;;;;;;6.13;1.75;;;;;;;;;;3382244;42;20091;-65
2022/10/04 14:46:49;;;;;;;6.57;1.80;;;;;;;;;;3379903;42;20079;-63
2022/10/04 14:49:56;;;;;;;6.00;1.75;;;;;;;;;;3379991;42;20169;-65
2022/10/04 14:52:32;;;;;;;6.65;1.70;;;;;;;;;;3382896;42;20083;-65
2022/10/04 14:55:25;;;;;;;5.13;1.70;;;;;;;;;;3378287;42;20082;-65
2022/10/04 14:58:15;;;;;;;6.93;1.60;;;;;;;;;;3374418;42;20151;-66
2022/10/04 15:01:22;;;;;;;6.40;1.50;;;;;;;;;;3375385;42;20130;-64
2022/10/04 15:04:10;;;;;;;7.75;1.50;;;;;;;;;;3374088;42;20091;-64
2022/10/04 15:06:58;;;;;;;4.88;1.50;;;;;;;;;;3385085;42;20091;-64
2022/10/04 15:09:48;;;;;;;5.10;1.40;;;;;;;;;;3372801;42;20099;-67
2022/10/04 15:12:42;;;;;;;5.32;1.25;;;;;;;;;;3378245;42;20091;-65
2022/10/04 15:15:29;;;;;;;4.93;1.52;;;;;;;;;;3383108;42;20114;-65
2022/10/04 15:18:26;;;;;;;5.10;1.50;;;;;;;;;;3383447;42;20109;-66
2022/10/04 15:21:20;;;;;;;4.35;1.38;;;;;;;;;;3382683;42;20176;-64
2022/10/04 15:23:54;;;;;;;5.07;1.57;;;;;;;;;;3372412;42;20083;-64
2022/10/04 15:26:28;;;;;;;4.50;1.30;;;;;;;;;;3378638;42;20653;-65
2022/10/04 15:29:04;;;;;;;6.38;1.50;;;;;;;;;;3377376;42;20485;-66
2022/10/04 15:31:45;;;;;;;6.65;1.63;;;;;;;;;;3375960;42;20509;-65
2022/10/04 15:34:38;;;;;;;6.00;1.50;;;;;;;;;;3382830;42;20095;-67
2022/10/04 15:37:30;;;;;;;5.07;1.73;;;;;;;;;;3382723;42;20564;-65
2022/10/04 15:40:23;;;;;;;7.30;1.75;;;;;;;;;;3383393;42;20113;-67
2022/10/04 15:43:21;;;;;;;6.00;1.92;;;;;;;;;;3373791;42;20137;-65
2022/10/04 15:46:26;;;;;;;5.00;1.33;;;;;;;;;;3371026;42;20090;-64
2022/10/04 15:49:31;;;;;;;5.53;2.03;;;;;;;;;;3390083;42;20086;-66
2022/10/04 15:52:27;;;;;;;6.60;1.30;;;;;;;;;;3376502;42;20095;-64
2022/10/04 15:55:12;;;;;;;5.97;1.50;;;;;;;;;;3379837;42;20161;-65
2022/10/04 15:57:44;;;;;;;4.60;1.40;;;;;;;;;;3380177;42;20091;-64
2022/10/04 16:00:27;;;;;;;5.88;1.60;;;;;;;;;;3382916;42;20157;-65
2022/10/04 16:03:19;;;;;;;5.03;1.55;;;;;;;;;;3383241;42;20574;-64
2022/10/04 16:06:04;;;;;;;4.17;1.30;;;;;;;;;;3375795;42;20087;-65
2022/10/04 16:08:41;;;;;;;5.72;1.90;;;;;;;;;;3375744;42;20564;-64
2022/10/04 16:11:46;;;;;;;4.90;1.73;;;;;;;;;;3383657;42;20122;-66
2022/10/04 16:14:29;;;;;;;5.78;1.45;;;;;;;;;;3378617;42;20168;-65
2022/10/04 16:17:20;;;;;;;5.97;1.58;;;;;;;;;;3381922;42;20155;-65
2022/10/04 16:20:24;;;;;;;4.60;1.47;;;;;;;;;;3378410;42;20105;-63
2022/10/04 16:23:30;;;;;;;6.75;1.63;;;;;;;;;;3374313;42;20083;-65
2022/10/04 16:26:24;;;;;;;5.50;1.40;;;;;;;;;;3366481;42;20083;-65
2022/10/04 16:28:59;;;;;;;5.75;1.50;;;;;;;;;;3376723;42;20091;-65
2022/10/04 16:31:37;;;;;;;4.53;1.25;;;;;;;;;;3375554;42;20554;-65
2022/10/04 16:34:23;;;;;;;4.80;1.43;;;;;;;;;;3383752;42;20549;-63
2022/10/04 16:37:01;;;;;;;5.05;1.40;;;;;;;;;;3365127;42;20095;-66
2022/10/04 16:43:04;;;;;;;6.60;1.55;;;;;;;;;;3377888;42;20105;-65
2022/10/04 16:46:12;;;;;;;4.60;1.48;;;;;;;;;;3340862;42;20940;-64
2022/10/04 16:48:58;;;;;;;4.90;1.50;;;;;;;;;;3381367;42;20102;-65
2022/10/04 16:52:01;;;;;;;6.18;1.60;;;;;;;;;;3377471;42;20591;-66
2022/10/04 16:54:58;;;;;;;5.22;1.30;;;;;;;;;;3382501;42;20099;-66
2022/10/04 16:57:29;;;;;;;7.15;1.40;;;;;;;;;;3375433;42;20642;-65
2022/10/04 17:00:37;;;;;;;6.25;1.58;;;;;;;;;;3382867;42;20495;-68
2022/10/04 17:03:16;;;;;;;5.73;1.47;;;;;;;;;;3381906;42;20465;-66
2022/10/04 17:05:52;;;;;;;6.07;1.60;;;;;;;;;;3374532;42;20103;-64